Maggie Valley, North Carolina
Current Conditions -  °F | °C
As of 4:54 PM on Friday 24 Oct 2014 (Local Time) from KAVL Reporting Station
Clear Clear  
Wind Chill: 64°   Ceiling: Unl
Heat Index: 64°   Visibility: 10mi
Dew Point: 34°   Wind: 7mph
Humidity: 33%   Direction: 350°N
Pressure: 30.02"   Gusts: NA
Location:  35.52°N, 83.1°W
Report Text: KAVL 242054Z 35006KT 10SM CLR 18/01 A3002 RMK AO2 SLP155 T01780011 56008
Loading
Personal Weather Stations






























Interactive Weather Map
Tropical Storm Tracking
New forecast layout! Learn more

10-Day Weather Forecast

Advertisements
Track Severe Weather on mobile